createdAt,value
2022-11-12T00:04:38.720Z,98823.78
2022-11-12T00:09:59.251Z,98817.25
2022-11-12T00:15:19.663Z,98818.09
2022-11-12T00:20:39.843Z,98820.63
2022-11-12T00:26:01.351Z,98823.97
2022-11-12T00:31:21.704Z,98819.78
2022-11-12T00:36:42.097Z,98820.59
2022-11-12T00:42:02.719Z,98823.75
2022-11-12T00:47:23.127Z,98821.03
2022-11-12T00:52:43.837Z,98823.13
2022-11-12T00:58:04.166Z,98812.88
2022-11-12T01:03:24.571Z,98806.59
2022-11-12T01:08:44.888Z,98816.22
2022-11-12T01:14:08.309Z,98811.81
2022-11-12T01:19:28.827Z,98801.78
2022-11-12T01:24:49.266Z,98809.31
2022-11-12T01:30:10.504Z,98794.84
2022-11-12T01:35:31.093Z,98795.88
2022-11-12T01:40:51.297Z,98778.50
2022-11-12T01:46:21.121Z,98769.06
2022-11-12T01:51:45.670Z,98750.41
2022-11-12T01:57:07.864Z,98755.84
2022-11-12T02:02:28.523Z,98751.44
2022-11-12T02:07:50.126Z,98755.66
2022-11-12T02:13:40.198Z,98747.69
2022-11-12T02:19:01.050Z,98760.25
2022-11-12T02:24:21.008Z,98751.66
2022-11-12T02:29:46.443Z,98749.78
2022-11-12T02:35:07.317Z,98744.34
2022-11-12T02:40:27.544Z,98754.56
2022-11-12T02:45:47.663Z,98754.34
2022-11-12T02:51:08.181Z,98752.06
2022-11-12T02:56:28.688Z,98751.81
2022-11-12T03:01:49.160Z,98765.22
2022-11-12T03:07:09.804Z,98763.75
2022-11-12T03:12:32.449Z,98780.06
2022-11-12T03:17:52.637Z,98775.66
2022-11-12T03:23:12.953Z,98776.53
2022-11-12T03:28:33.566Z,98786.75
2022-11-12T03:33:53.917Z,98782.72
2022-11-12T03:39:14.420Z,98787.28
2022-11-12T03:44:34.709Z,98778.06
2022-11-12T03:49:55.213Z,98767.19
2022-11-12T03:55:17.303Z,98779.38
2022-11-12T04:00:37.664Z,98787.16
2022-11-12T04:06:16.365Z,98774.16
2022-11-12T04:11:37.001Z,98771.63
2022-11-12T04:17:15.575Z,98774.78
2022-11-12T04:22:35.874Z,98773.25
2022-11-12T04:27:56.465Z,98766.72
2022-11-12T04:33:17.127Z,98773.28
2022-11-12T04:38:37.744Z,98777.50
2022-11-12T04:44:16.532Z,98773.94
2022-11-12T04:49:36.997Z,98773.47
2022-11-12T04:54:58.241Z,98776.34
2022-11-12T05:00:18.873Z,98775.94
2022-11-12T05:05:39.056Z,98783.91
2022-11-12T05:10:59.839Z,98771.41
2022-11-12T05:16:20.329Z,98772.03
2022-11-12T05:21:59.057Z,98770.22
2022-11-12T05:27:20.856Z,98775.22
2022-11-12T05:32:41.511Z,98770.16
2022-11-12T05:38:02.278Z,98769.13
2022-11-12T05:43:22.346Z,98780.22
2022-11-12T05:48:42.921Z,98786.34
2022-11-12T05:54:04.144Z,98788.59
2022-11-12T05:59:24.488Z,98781.06
2022-11-12T06:04:44.528Z,98781.28
2022-11-12T06:10:05.359Z,98788.66
2022-11-12T06:15:27.037Z,98796.16
2022-11-12T06:21:08.509Z,98801.59
2022-11-12T06:26:30.374Z,98810.00
2022-11-12T06:31:50.913Z,98810.00
2022-11-12T06:37:11.409Z,98803.88
2022-11-12T06:42:31.450Z,98805.13
2022-11-12T06:47:51.877Z,98800.50
2022-11-12T06:53:12.305Z,98809.88
2022-11-12T06:58:32.484Z,98805.50
2022-11-12T07:03:53.324Z,98811.16
2022-11-12T07:09:13.561Z,98817.59
2022-11-12T07:14:34.432Z,98819.91
2022-11-12T07:19:58.251Z,98809.03
2022-11-12T07:25:22.777Z,98805.72
2022-11-12T07:30:43.492Z,98816.22
2022-11-12T07:36:08.806Z,98822.88
2022-11-12T07:41:28.823Z,98822.50
2022-11-12T07:46:49.173Z,98811.63
2022-11-12T07:52:09.795Z,98808.91
2022-11-12T07:57:32.946Z,98816.06
2022-11-12T08:02:53.259Z,98815.44
2022-11-12T08:08:14.386Z,98812.31
2022-11-12T08:13:34.700Z,98810.03
2022-11-12T08:18:55.294Z,98814.41
2022-11-12T08:24:15.402Z,98818.78
2022-11-12T08:29:35.902Z,98817.56
2022-11-12T08:34:56.007Z,98825.94
2022-11-12T08:40:16.216Z,98825.28
2022-11-12T08:45:39.258Z,98832.31
2022-11-12T08:51:02.561Z,98834.94
2022-11-12T08:56:22.793Z,98837.03
2022-11-12T09:01:43.255Z,98838.75
2022-11-12T09:07:03.334Z,98842.56
2022-11-12T09:12:24.155Z,98844.19
2022-11-12T09:17:44.672Z,98838.44
2022-11-12T09:23:11.108Z,98832.22
2022-11-12T09:28:32.035Z,98838.09
2022-11-12T09:33:52.174Z,98835.41
2022-11-12T09:39:12.944Z,98841.69
2022-11-12T09:44:37.626Z,98840.63
2022-11-12T09:50:02.979Z,98841.50
2022-11-12T09:55:34.825Z,98830.00
2022-11-12T10:01:07.332Z,98835.28
2022-11-12T10:07:04.271Z,98825.66
2022-11-12T10:12:53.209Z,98827.13
2022-11-12T10:18:25.658Z,98816.44
2022-11-12T10:23:49.297Z,98811.81
2022-11-12T10:29:32.714Z,98804.25
2022-11-12T10:34:53.113Z,98797.56
2022-11-12T10:40:26.396Z,98791.25
2022-11-12T10:45:48.955Z,98776.63
2022-11-12T10:51:39.603Z,98776.19
2022-11-12T10:57:20.183Z,98794.66
2022-11-12T11:02:51.032Z,98790.44
2022-11-12T11:08:11.410Z,98779.75
2022-11-12T11:13:31.481Z,98778.88
2022-11-12T11:19:04.684Z,98774.06
2022-11-12T11:24:56.088Z,98763.75
2022-11-12T11:30:21.568Z,98753.44
2022-11-12T11:35:59.740Z,98753.84
2022-11-12T11:42:04.537Z,98748.84
2022-11-12T11:47:59.815Z,98740.44
2022-11-12T11:53:27.149Z,98726.16
2022-11-12T11:59:19.476Z,98723.88
2022-11-12T12:04:47.311Z,98722.63
2022-11-12T12:10:16.663Z,98725.56
2022-11-12T12:15:55.731Z,98731.63
2022-11-12T12:21:17.951Z,98727.41
2022-11-12T12:26:57.473Z,98727.34
2022-11-12T12:32:29.414Z,98730.28
2022-11-12T12:37:59.476Z,98720.59
2022-11-12T12:43:32.985Z,98717.63
2022-11-12T12:48:54.154Z,98707.50
2022-11-12T12:54:52.774Z,98709.56
2022-11-12T13:00:32.114Z,98700.72
2022-11-12T13:06:07.344Z,98696.53
2022-11-12T13:12:01.589Z,98691.66
2022-11-12T13:17:43.932Z,98683.25
2022-11-12T13:23:31.791Z,98682.88
2022-11-12T13:29:29.532Z,98676.78
2022-11-12T13:34:49.597Z,98667.69
2022-11-12T13:40:17.055Z,98669.56
2022-11-12T13:45:46.453Z,98658.00
2022-11-12T13:51:15.139Z,98657.03
2022-11-12T13:56:37.392Z,98649.59
2022-11-12T14:02:05.225Z,98642.00
2022-11-12T14:07:37.773Z,98641.97
2022-11-12T14:13:07.300Z,98640.97
2022-11-12T14:18:56.556Z,98639.22
2022-11-12T14:24:16.972Z,98634.88
2022-11-12T14:29:42.502Z,98628.63
2022-11-12T14:35:24.963Z,98621.03
2022-11-12T14:40:50.323Z,98617.72
2022-11-12T14:46:28.961Z,98615.41
2022-11-12T14:52:06.230Z,98603.19
2022-11-12T14:57:29.197Z,98590.56
2022-11-12T15:02:59.284Z,98583.56
2022-11-12T15:08:36.292Z,98570.78
2022-11-12T15:14:01.848Z,98570.16
2022-11-12T15:19:27.541Z,98572.69
2022-11-12T15:24:49.535Z,98573.34
2022-11-12T15:30:18.804Z,98573.00
2022-11-12T15:35:46.938Z,98579.91
2022-11-12T15:41:24.862Z,98576.94
2022-11-12T15:46:45.258Z,98580.91
2022-11-12T15:52:05.405Z,98567.44
2022-11-12T15:57:29.549Z,98572.03
2022-11-12T16:02:59.226Z,98577.94
2022-11-12T16:08:19.442Z,98566.59
2022-11-12T16:13:39.728Z,98563.19
2022-11-12T16:19:00.276Z,98557.94
2022-11-12T16:24:20.604Z,98566.56
2022-11-12T16:29:41.357Z,98561.94
2022-11-12T16:35:01.901Z,98566.16
2022-11-12T16:40:24.669Z,98571.22
2022-11-12T16:45:45.241Z,98569.59
2022-11-12T16:51:05.806Z,98572.56
2022-11-12T16:56:26.150Z,98569.25
2022-11-12T17:01:46.722Z,98568.38
2022-11-12T17:07:07.070Z,98563.34
2022-11-12T17:12:27.456Z,98547.00
2022-11-12T17:17:47.625Z,98545.59
2022-11-12T17:23:08.403Z,98551.69
2022-11-12T17:28:29.958Z,98544.97
2022-11-12T17:33:52.035Z,98551.38
2022-11-12T17:39:13.384Z,98537.97
2022-11-12T17:44:34.098Z,98550.53
2022-11-12T17:49:54.763Z,98553.25
2022-11-12T17:55:15.533Z,98551.44
2022-11-12T18:00:37.774Z,98548.94
2022-11-12T18:06:00.012Z,98530.94
2022-11-12T18:11:21.262Z,98534.44
2022-11-12T18:16:42.264Z,98535.91
2022-11-12T18:22:02.382Z,98534.88
2022-11-12T18:27:22.767Z,98523.56
2022-11-12T18:32:42.856Z,98513.31
2022-11-12T18:38:03.222Z,98513.66
2022-11-12T18:43:23.424Z,98518.25
2022-11-12T18:48:43.659Z,98516.75
2022-11-12T18:54:03.990Z,98520.78
2022-11-12T18:59:30.402Z,98515.94
2022-11-12T19:04:50.892Z,98511.56
2022-11-12T19:10:14.885Z,98506.34
2022-11-12T19:15:36.142Z,98499.47
2022-11-12T19:21:02.550Z,98504.47
2022-11-12T19:26:23.912Z,98494.22
2022-11-12T19:31:44.017Z,98490.94
2022-11-12T19:37:32.946Z,98478.16
2022-11-12T19:42:46.905Z,98476.88
2022-11-12T19:48:07.188Z,98472.72
2022-11-12T19:53:34.675Z,98466.09
2022-11-12T19:58:55.034Z,98469.88
2022-11-12T20:04:17.900Z,98471.13
2022-11-12T20:09:42.518Z,98463.84
2022-11-12T20:15:02.992Z,98464.56
2022-11-12T20:20:23.378Z,98461.25
2022-11-12T20:25:43.795Z,98463.34
2022-11-12T20:31:09.639Z,98461.69
2022-11-12T20:36:31.405Z,98463.13
2022-11-12T20:41:51.828Z,98456.66
2022-11-12T20:47:11.831Z,98450.53
2022-11-12T20:52:32.106Z,98446.38
2022-11-12T20:57:52.485Z,98444.53
2022-11-12T21:03:12.907Z,98437.44
2022-11-12T21:08:34.337Z,98442.44
2022-11-12T21:13:54.621Z,98429.84
2022-11-12T21:19:14.777Z,98420.16
2022-11-12T21:24:35.079Z,98413.44
2022-11-12T21:29:55.222Z,98412.59
2022-11-12T21:35:15.783Z,98406.13
2022-11-12T21:40:36.205Z,98399.28
2022-11-12T21:45:56.727Z,98413.13
2022-11-12T21:51:18.243Z,98404.38
2022-11-12T21:56:40.124Z,98391.88
2022-11-12T22:02:00.685Z,98394.00
2022-11-12T22:07:21.147Z,98403.16
2022-11-12T22:12:58.624Z,98401.94
2022-11-12T22:18:21.472Z,98392.75
2022-11-12T22:23:41.930Z,98393.75
2022-11-12T22:29:02.288Z,98384.13
2022-11-12T22:34:22.709Z,98387.09
2022-11-12T22:39:42.988Z,98385.63
2022-11-12T22:45:03.441Z,98386.03
2022-11-12T22:50:23.506Z,98381.00
2022-11-12T22:55:43.951Z,98370.97
2022-11-12T23:01:06.378Z,98370.94
2022-11-12T23:06:28.774Z,98360.16
2022-11-12T23:11:49.184Z,98363.25
2022-11-12T23:17:09.400Z,98353.03
2022-11-12T23:22:30.252Z,98345.47
2022-11-12T23:27:50.682Z,98344.88
2022-11-12T23:33:10.970Z,98338.81
2022-11-12T23:38:31.948Z,98344.25
2022-11-12T23:43:53.854Z,98329.59
2022-11-12T23:49:14.338Z,98335.44
2022-11-12T23:54:34.615Z,98327.91
2022-11-12T23:59:54.877Z,98328.97
